sensor_id;sensor_type;location;lat;lon;timestamp;pressure;altitude;pressure_sealevel;temperature;humidity
61113;BME280;47184;57.998;56.184;2023-03-19T00:00:07;102284.56;;;-5.02;51.45
61113;BME280;47184;57.998;56.184;2023-03-19T00:02:34;102277.69;;;-5.04;51.77
61113;BME280;47184;57.998;56.184;2023-03-19T00:05:01;102269.97;;;-5.09;51.53
61113;BME280;47184;57.998;56.184;2023-03-19T00:07:27;102273.44;;;-5.10;51.67
61113;BME280;47184;57.998;56.184;2023-03-19T00:09:53;102282.00;;;-5.11;51.47
61113;BME280;47184;57.998;56.184;2023-03-19T00:12:19;102279.44;;;-5.17;52.06
61113;BME280;47184;57.998;56.184;2023-03-19T00:14:45;102282.03;;;-5.14;51.98
61113;BME280;47184;57.998;56.184;2023-03-19T00:17:12;102274.31;;;-5.20;52.00
61113;BME280;47184;57.998;56.184;2023-03-19T00:19:38;102282.91;;;-5.18;52.14
61113;BME280;47184;57.998;56.184;2023-03-19T00:22:04;102280.31;;;-5.18;52.29
61113;BME280;47184;57.998;56.184;2023-03-19T00:24:30;102265.75;;;-5.28;52.33
61113;BME280;47184;57.998;56.184;2023-03-19T00:26:56;102238.34;;;-5.57;52.72
61113;BME280;47184;57.998;56.184;2023-03-19T00:29:24;102288.09;;;-5.38;52.56
61113;BME280;47184;57.998;56.184;2023-03-19T00:31:50;102289.81;;;-5.49;53.00
61113;BME280;47184;57.998;56.184;2023-03-19T00:34:17;102297.53;;;-5.49;53.34
61113;BME280;47184;57.998;56.184;2023-03-19T00:36:44;102299.28;;;-5.51;52.74
61113;BME280;47184;57.998;56.184;2023-03-19T00:39:11;102282.09;;;-5.64;53.32
61113;BME280;47184;57.998;56.184;2023-03-19T00:41:37;102310.44;;;-5.58;53.42
61113;BME280;47184;57.998;56.184;2023-03-19T00:44:03;102312.97;;;-5.60;53.31
61113;BME280;47184;57.998;56.184;2023-03-19T00:46:31;102316.44;;;-5.59;53.58
61113;BME280;47184;57.998;56.184;2023-03-19T00:48:57;102315.56;;;-5.58;52.97
61113;BME280;47184;57.998;56.184;2023-03-19T00:51:24;102318.16;;;-5.55;52.80
61113;BME280;47184;57.998;56.184;2023-03-19T00:53:51;102318.16;;;-5.51;52.84
61113;BME280;47184;57.998;56.184;2023-03-19T00:56:18;102319.88;;;-5.54;52.48
61113;BME280;47184;57.998;56.184;2023-03-19T00:58:45;102328.44;;;-5.54;52.58
61113;BME280;47184;57.998;56.184;2023-03-19T01:01:15;102318.13;;;-5.57;53.27
61113;BME280;47184;57.998;56.184;2023-03-19T01:03:43;102325.88;;;-5.58;53.12
61113;BME280;47184;57.998;56.184;2023-03-19T01:06:10;102328.44;;;-5.60;53.25
61113;BME280;47184;57.998;56.184;2023-03-19T01:08:37;102322.44;;;-5.66;53.07
61113;BME280;47184;57.998;56.184;2023-03-19T01:11:08;102317.28;;;-5.73;53.41
61113;BME280;47184;57.998;56.184;2023-03-19T01:13:35;102318.13;;;-5.72;52.77
61113;BME280;47184;57.998;56.184;2023-03-19T01:16:01;102316.44;;;-5.78;53.15
61113;BME280;47184;57.998;56.184;2023-03-19T01:18:27;102318.16;;;-5.80;53.19
61113;BME280;47184;57.998;56.184;2023-03-19T01:20:53;102298.44;;;-5.97;53.43
61113;BME280;47184;57.998;56.184;2023-03-19T01:23:20;102313.88;;;-5.99;53.73
61113;BME280;47184;57.998;56.184;2023-03-19T01:25:46;102322.44;;;-5.89;53.92
61113;BME280;47184;57.998;56.184;2023-03-19T01:28:12;102323.28;;;-5.90;53.29
61113;BME280;47184;57.998;56.184;2023-03-19T01:30:39;102317.28;;;-5.89;53.69
61113;BME280;47184;57.998;56.184;2023-03-19T01:33:29;102324.16;;;-5.90;53.56
61113;BME280;47184;57.998;56.184;2023-03-19T01:36:01;102318.16;;;-5.90;53.94
61113;BME280;47184;57.998;56.184;2023-03-19T01:38:54;102305.31;;;-6.00;53.80
61113;BME280;47184;57.998;56.184;2023-03-19T01:41:24;102313.88;;;-5.91;53.72
61113;BME280;47184;57.998;56.184;2023-03-19T01:43:52;102302.75;;;-6.00;53.89
61113;BME280;47184;57.998;56.184;2023-03-19T01:46:38;102316.44;;;-5.93;54.02
61113;BME280;47184;57.998;56.184;2023-03-19T01:49:31;102325.88;;;-5.93;53.79
61113;BME280;47184;57.998;56.184;2023-03-19T01:52:12;102327.59;;;-5.97;54.05
61113;BME280;47184;57.998;56.184;2023-03-19T01:54:52;102325.88;;;-6.06;54.01
61113;BME280;47184;57.998;56.184;2023-03-19T01:57:55;102327.59;;;-6.06;53.81
61113;BME280;47184;57.998;56.184;2023-03-19T02:00:40;102299.28;;;-6.23;54.10
61113;BME280;47184;57.998;56.184;2023-03-19T02:03:07;102316.44;;;-6.14;54.24
61113;BME280;47184;57.998;56.184;2023-03-19T02:05:51;102309.56;;;-6.18;54.00
61113;BME280;47184;57.998;56.184;2023-03-19T02:08:20;102329.28;;;-6.05;54.58
61113;BME280;47184;57.998;56.184;2023-03-19T02:10:48;102348.16;;;-6.08;54.15
61113;BME280;47184;57.998;56.184;2023-03-19T02:13:15;102331.00;;;-6.18;54.34
61113;BME280;47184;57.998;56.184;2023-03-19T02:15:41;102346.44;;;-6.07;54.75
61113;BME280;47184;57.998;56.184;2023-03-19T02:18:08;102319.00;;;-6.16;54.74
61113;BME280;47184;57.998;56.184;2023-03-19T02:20:43;102340.47;;;-6.08;55.14
61113;BME280;47184;57.998;56.184;2023-03-19T02:26:14;102339.59;;;-6.08;54.86
61113;BME280;47184;57.998;56.184;2023-03-19T02:28:44;102350.72;;;-6.06;54.83
61113;BME280;47184;57.998;56.184;2023-03-19T02:31:14;102312.97;;;-6.26;54.90
61113;BME280;47184;57.998;56.184;2023-03-19T02:33:41;102337.03;;;-6.04;54.71
61113;BME280;47184;57.998;56.184;2023-03-19T02:36:12;102339.59;;;-6.07;55.15
61113;BME280;47184;57.998;56.184;2023-03-19T02:38:41;102339.59;;;-6.10;54.75
61113;BME280;47184;57.998;56.184;2023-03-19T02:41:09;102331.84;;;-6.17;55.08
61113;BME280;47184;57.998;56.184;2023-03-19T02:43:37;102341.31;;;-6.07;54.89
61113;BME280;47184;57.998;56.184;2023-03-19T02:46:08;102336.16;;;-6.03;54.74
61113;BME280;47184;57.998;56.184;2023-03-19T02:48:35;102340.44;;;-6.02;55.34
61113;BME280;47184;57.998;56.184;2023-03-19T02:51:03;102335.31;;;-5.97;55.00
61113;BME280;47184;57.998;56.184;2023-03-19T02:53:29;102343.00;;;-5.91;55.01
61113;BME280;47184;57.998;56.184;2023-03-19T02:55:55;102326.75;;;-5.93;54.93
61113;BME280;47184;57.998;56.184;2023-03-19T02:58:21;102336.16;;;-5.86;55.12
61113;BME280;47184;57.998;56.184;2023-03-19T03:00:47;102326.75;;;-5.96;55.35
61113;BME280;47184;57.998;56.184;2023-03-19T03:03:13;102338.72;;;-5.86;55.47
61113;BME280;47184;57.998;56.184;2023-03-19T03:05:39;102333.59;;;-5.87;55.42
61113;BME280;47184;57.998;56.184;2023-03-19T03:08:05;102326.72;;;-5.91;55.35
61113;BME280;47184;57.998;56.184;2023-03-19T03:10:32;102334.44;;;-5.85;55.70
61113;BME280;47184;57.998;56.184;2023-03-19T03:12:58;102325.00;;;-5.86;55.77
61113;BME280;47184;57.998;56.184;2023-03-19T03:15:25;102335.31;;;-5.74;55.32
61113;BME280;47184;57.998;56.184;2023-03-19T03:17:52;102325.84;;;-5.77;55.64
61113;BME280;47184;57.998;56.184;2023-03-19T03:20:18;102339.56;;;-5.64;55.35
61113;BME280;47184;57.998;56.184;2023-03-19T03:22:45;102341.31;;;-5.63;55.92
61113;BME280;47184;57.998;56.184;2023-03-19T03:25:11;102325.00;;;-5.74;56.12
61113;BME280;47184;57.998;56.184;2023-03-19T03:27:38;102354.19;;;-5.55;55.84
61113;BME280;47184;57.998;56.184;2023-03-19T03:30:06;102347.31;;;-5.50;56.41
61113;BME280;47184;57.998;56.184;2023-03-19T03:32:35;102345.59;;;-5.53;56.07
61113;BME280;47184;57.998;56.184;2023-03-19T03:35:02;102349.88;;;-5.42;56.24
61113;BME280;47184;57.998;56.184;2023-03-19T03:37:29;102349.84;;;-5.27;55.86
61113;BME280;47184;57.998;56.184;2023-03-19T03:39:55;102333.53;;;-5.23;55.65
61113;BME280;47184;57.998;56.184;2023-03-19T03:42:22;102334.38;;;-5.12;55.52
61113;BME280;47184;57.998;56.184;2023-03-19T03:44:49;102339.53;;;-5.06;55.30
61113;BME280;47184;57.998;56.184;2023-03-19T03:47:15;102341.22;;;-5.03;55.40
61113;BME280;47184;57.998;56.184;2023-03-19T03:49:43;102344.66;;;-5.03;55.45
61113;BME280;47184;57.998;56.184;2023-03-19T03:52:09;102347.22;;;-5.00;55.64
61113;BME280;47184;57.998;56.184;2023-03-19T03:54:35;102354.94;;;-4.89;55.39
61113;BME280;47184;57.998;56.184;2023-03-19T03:57:01;102351.50;;;-4.85;55.53
61113;BME280;47184;57.998;56.184;2023-03-19T03:59:28;102360.03;;;-4.72;55.40
61113;BME280;47184;57.998;56.184;2023-03-19T04:01:54;102365.16;;;-4.63;55.43
61113;BME280;47184;57.998;56.184;2023-03-19T04:04:20;102355.69;;;-4.61;55.33
61113;BME280;47184;57.998;56.184;2023-03-19T04:06:46;102361.66;;;-4.50;55.26
61113;BME280;47184;57.998;56.184;2023-03-19T04:09:22;102359.91;;;-4.46;55.39
61113;BME280;47184;57.998;56.184;2023-03-19T04:11:49;102366.78;;;-4.43;55.54
61113;BME280;47184;57.998;56.184;2023-03-19T04:14:15;102367.69;;;-4.49;55.33
61113;BME280;47184;57.998;56.184;2023-03-19T04:16:41;102376.25;;;-4.45;55.43
61113;BME280;47184;57.998;56.184;2023-03-19T04:19:09;102373.63;;;-4.35;55.50
61113;BME280;47184;57.998;56.184;2023-03-19T04:21:35;102370.16;;;-4.29;55.81
61113;BME280;47184;57.998;56.184;2023-03-19T04:24:01;102368.41;;;-4.26;55.74
61113;BME280;47184;57.998;56.184;2023-03-19T04:26:28;102360.69;;;-4.24;55.54
61113;BME280;47184;57.998;56.184;2023-03-19T04:28:54;102370.06;;;-4.11;55.57
61113;BME280;47184;57.998;56.184;2023-03-19T04:31:21;102357.16;;;-4.08;55.89
61113;BME280;47184;57.998;56.184;2023-03-19T04:33:47;102374.25;;;-3.91;55.60
61113;BME280;47184;57.998;56.184;2023-03-19T04:36:14;102370.81;;;-3.96;55.47
61113;BME280;47184;57.998;56.184;2023-03-19T04:38:40;102365.69;;;-4.00;55.66
61113;BME280;47184;57.998;56.184;2023-03-19T04:41:06;102368.19;;;-3.87;55.70
61113;BME280;47184;57.998;56.184;2023-03-19T04:43:35;102363.81;;;-3.75;55.62
61113;BME280;47184;57.998;56.184;2023-03-19T04:46:04;102363.72;;;-3.65;55.62
61113;BME280;47184;57.998;56.184;2023-03-19T04:48:32;102371.34;;;-3.52;55.51
61113;BME280;47184;57.998;56.184;2023-03-19T04:50:58;102366.13;;;-3.42;55.39
61113;BME280;47184;57.998;56.184;2023-03-19T04:53:25;102356.59;;;-3.37;55.37
61113;BME280;47184;57.998;56.184;2023-03-19T04:55:51;102361.59;;;-3.19;55.39
61113;BME280;47184;57.998;56.184;2023-03-19T04:58:19;102364.19;;;-3.17;55.76
61113;BME280;47184;57.998;56.184;2023-03-19T05:00:52;102372.69;;;-3.08;55.71
61113;BME280;47184;57.998;56.184;2023-03-19T05:03:23;102354.59;;;-3.06;55.64
61113;BME280;47184;57.998;56.184;2023-03-19T05:05:52;102364.75;;;-2.89;55.62
61113;BME280;47184;57.998;56.184;2023-03-19T05:08:19;102367.19;;;-2.79;55.42
61113;BME280;47184;57.998;56.184;2023-03-19T05:10:46;102373.06;;;-2.63;55.69
61113;BME280;47184;57.998;56.184;2023-03-19T05:13:12;102356.50;;;-2.48;56.00
61113;BME280;47184;57.998;56.184;2023-03-19T05:15:44;102367.91;;;-1.98;56.19
61113;BME280;47184;57.998;56.184;2023-03-19T05:18:12;102370.81;;;-1.62;56.15
61113;BME280;47184;57.998;56.184;2023-03-19T05:20:42;102361.19;;;-1.05;55.76
61113;BME280;47184;57.998;56.184;2023-03-19T05:23:16;102352.56;;;-0.62;54.89
61113;BME280;47184;57.998;56.184;2023-03-19T05:26:05;102310.97;;;-0.59;53.74
61113;BME280;47184;57.998;56.184;2023-03-19T05:28:52;102352.41;;;-0.14;53.18
61113;BME280;47184;57.998;56.184;2023-03-19T05:31:24;102325.06;;;0.09;53.04
61113;BME280;47184;57.998;56.184;2023-03-19T05:33:53;102348.38;;;0.82;52.88
61113;BME280;47184;57.998;56.184;2023-03-19T05:36:19;102349.50;;;1.65;51.93
61113;BME280;47184;57.998;56.184;2023-03-19T05:39:00;102343.25;;;3.03;49.94
61113;BME280;47184;57.998;56.184;2023-03-19T05:41:32;102346.84;;;4.37;47.73
61113;BME280;47184;57.998;56.184;2023-03-19T05:44:02;102330.16;;;5.01;46.51
61113;BME280;47184;57.998;56.184;2023-03-19T05:46:46;102313.47;;;5.79;45.72
61113;BME280;47184;57.998;56.184;2023-03-19T05:49:14;102335.47;;;7.16;44.11
61113;BME280;47184;57.998;56.184;2023-03-19T05:51:40;102332.28;;;7.90;43.48
61113;BME280;47184;57.998;56.184;2023-03-19T05:54:07;102338.84;;;8.89;42.18
61113;BME280;47184;57.998;56.184;2023-03-19T05:56:56;102318.28;;;9.66;41.54
61113;BME280;47184;57.998;56.184;2023-03-19T05:59:34;102298.63;;;10.11;40.82
61113;BME280;47184;57.998;56.184;2023-03-19T06:02:23;102326.63;;;11.30;39.30
61113;BME280;47184;57.998;56.184;2023-03-19T06:04:56;102320.41;;;12.05;38.31
61113;BME280;47184;57.998;56.184;2023-03-19T06:07:29;102316.16;;;12.61;37.66
61113;BME280;47184;57.998;56.184;2023-03-19T06:09:56;102317.09;;;11.77;35.59
61113;BME280;47184;57.998;56.184;2023-03-19T06:12:22;102313.66;;;11.64;37.36
61113;BME280;47184;57.998;56.184;2023-03-19T06:15:14;102308.09;;;12.04;35.77
61113;BME280;47184;57.998;56.184;2023-03-19T06:17:43;102285.28;;;11.66;35.66
61113;BME280;47184;57.998;56.184;2023-03-19T06:20:11;102308.16;;;12.15;35.30
61113;BME280;47184;57.998;56.184;2023-03-19T06:22:39;102303.75;;;12.73;34.97
61113;BME280;47184;57.998;56.184;2023-03-19T06:25:06;102303.00;;;12.60;32.88
61113;BME280;47184;57.998;56.184;2023-03-19T06:27:35;102303.91;;;12.94;32.78
61113;BME280;47184;57.998;56.184;2023-03-19T06:30:17;102299.53;;;12.71;32.52
61113;BME280;47184;57.998;56.184;2023-03-19T06:32:43;102288.56;;;12.75;31.91
61113;BME280;47184;57.998;56.184;2023-03-19T06:35:12;102289.53;;;12.63;31.52
61113;BME280;47184;57.998;56.184;2023-03-19T06:37:39;102300.56;;;12.10;31.28
61113;BME280;47184;57.998;56.184;2023-03-19T06:40:05;102295.22;;;11.62;30.84
61113;BME280;47184;57.998;56.184;2023-03-19T06:42:31;102291.34;;;10.93;29.88
61113;BME280;47184;57.998;56.184;2023-03-19T06:44:57;102288.31;;;10.21;29.63
61113;BME280;47184;57.998;56.184;2023-03-19T06:47:23;102280.13;;;10.51;29.66
61113;BME280;47184;57.998;56.184;2023-03-19T06:49:49;102277.47;;;12.12;29.19
61113;BME280;47184;57.998;56.184;2023-03-19T06:52:16;102276.66;;;13.03;27.76
61113;BME280;47184;57.998;56.184;2023-03-19T06:54:41;102268.22;;;13.43;27.35
61113;BME280;47184;57.998;56.184;2023-03-19T06:57:08;102283.19;;;12.30;27.06
61113;BME280;47184;57.998;56.184;2023-03-19T06:59:34;102277.09;;;12.41;27.82
61113;BME280;47184;57.998;56.184;2023-03-19T07:02:00;102272.50;;;13.67;27.15
61113;BME280;47184;57.998;56.184;2023-03-19T07:04:26;102267.53;;;14.05;26.00
61113;BME280;47184;57.998;56.184;2023-03-19T07:06:52;102259.56;;;14.68;25.82
61113;BME280;47184;57.998;56.184;2023-03-19T07:09:19;102255.78;;;15.01;26.02
61113;BME280;47184;57.998;56.184;2023-03-19T07:11:45;102255.66;;;14.72;25.76
61113;BME280;47184;57.998;56.184;2023-03-19T07:14:11;102255.63;;;15.33;25.30
61113;BME280;47184;57.998;56.184;2023-03-19T07:16:37;102191.59;;;14.75;24.72
61113;BME280;47184;57.998;56.184;2023-03-19T07:19:03;102244.47;;;15.09;24.44
61113;BME280;47184;57.998;56.184;2023-03-19T07:21:29;102240.47;;;15.15;24.51
61113;BME280;47184;57.998;56.184;2023-03-19T07:23:55;102248.44;;;15.65;23.17
61113;BME280;47184;57.998;56.184;2023-03-19T07:26:21;102228.47;;;15.59;23.30
61113;BME280;47184;57.998;56.184;2023-03-19T07:28:47;102233.00;;;15.18;23.75
61113;BME280;47184;57.998;56.184;2023-03-19T07:31:13;102237.19;;;14.71;22.71
61113;BME280;47184;57.998;56.184;2023-03-19T07:33:42;102232.81;;;14.18;22.48
61113;BME280;47184;57.998;56.184;2023-03-19T07:36:08;102194.00;;;14.78;23.15
61113;BME280;47184;57.998;56.184;2023-03-19T07:38:34;102218.09;;;15.36;22.23
61113;BME280;47184;57.998;56.184;2023-03-19T07:41:00;102203.22;;;14.74;22.13
61113;BME280;47184;57.998;56.184;2023-03-19T07:43:26;102221.06;;;14.63;22.01
61113;BME280;47184;57.998;56.184;2023-03-19T07:45:52;102215.44;;;13.06;21.80
61113;BME280;47184;57.998;56.184;2023-03-19T07:48:18;102203.22;;;13.15;22.61
61113;BME280;47184;57.998;56.184;2023-03-19T07:50:44;102208.19;;;13.31;22.77
61113;BME280;47184;57.998;56.184;2023-03-19T07:53:10;102194.13;;;14.04;21.67
61113;BME280;47184;57.998;56.184;2023-03-19T07:55:37;102195.59;;;14.39;21.78
61113;BME280;47184;57.998;56.184;2023-03-19T07:58:03;102189.50;;;14.79;21.58
61113;BME280;47184;57.998;56.184;2023-03-19T08:00:29;102190.56;;;15.07;21.69
61113;BME280;47184;57.998;56.184;2023-03-19T08:02:55;102192.63;;;15.82;21.23
61113;BME280;47184;57.998;56.184;2023-03-19T08:05:21;102186.41;;;15.33;21.20
61113;BME280;47184;57.998;56.184;2023-03-19T08:07:47;102188.66;;;14.78;20.95
61113;BME280;47184;57.998;56.184;2023-03-19T08:10:15;102177.53;;;14.94;21.03
61113;BME280;47184;57.998;56.184;2023-03-19T08:12:41;102182.28;;;14.08;20.87
61113;BME280;47184;57.998;56.184;2023-03-19T08:15:09;102166.25;;;13.78;21.35
61113;BME280;47184;57.998;56.184;2023-03-19T08:17:36;102180.22;;;14.73;21.16
61113;BME280;47184;57.998;56.184;2023-03-19T08:20:10;102170.88;;;14.79;20.48
61113;BME280;47184;57.998;56.184;2023-03-19T08:22:38;102151.91;;;16.09;20.21
61113;BME280;47184;57.998;56.184;2023-03-19T08:25:05;102165.81;;;17.15;19.00
61113;BME280;47184;57.998;56.184;2023-03-19T08:27:32;102160.66;;;16.39;18.77
61113;BME280;47184;57.998;56.184;2023-03-19T08:30:05;102162.50;;;15.72;19.71
61113;BME280;47184;57.998;56.184;2023-03-19T08:32:32;102157.75;;;15.76;19.65
61113;BME280;47184;57.998;56.184;2023-03-19T08:34:57;102151.41;;;15.77;19.42
61113;BME280;47184;57.998;56.184;2023-03-19T08:37:24;102137.25;;;15.47;19.63
61113;BME280;47184;57.998;56.184;2023-03-19T08:39:50;102125.47;;;16.63;19.13
61113;BME280;47184;57.998;56.184;2023-03-19T08:42:20;102107.53;;;18.59;18.47
61113;BME280;47184;57.998;56.184;2023-03-19T08:44:47;102117.59;;;19.07;18.02
61113;BME280;47184;57.998;56.184;2023-03-19T08:47:13;102100.47;;;18.84;17.90
61113;BME280;47184;57.998;56.184;2023-03-19T08:49:40;102116.63;;;19.65;17.83
61113;BME280;47184;57.998;56.184;2023-03-19T08:52:06;102099.66;;;20.45;17.54
61113;BME280;47184;57.998;56.184;2023-03-19T08:54:33;102080.47;;;20.64;17.38
61113;BME280;47184;57.998;56.184;2023-03-19T08:57:00;102104.34;;;21.59;17.18
61113;BME280;47184;57.998;56.184;2023-03-19T08:59:27;102089.81;;;22.21;16.58
61113;BME280;47184;57.998;56.184;2023-03-19T09:01:53;102090.16;;;22.69;16.53
61113;BME280;47184;57.998;56.184;2023-03-19T09:04:20;102088.13;;;21.67;16.16
61113;BME280;47184;57.998;56.184;2023-03-19T09:06:47;102078.53;;;20.81;16.73
61113;BME280;47184;57.998;56.184;2023-03-19T09:09:21;102065.66;;;20.76;16.74
61113;BME280;47184;57.998;56.184;2023-03-19T09:11:48;102068.28;;;21.31;16.57
61113;BME280;47184;57.998;56.184;2023-03-19T09:14:15;102077.56;;;21.28;16.43
61113;BME280;47184;57.998;56.184;2023-03-19T09:16:42;102063.06;;;20.21;16.43
61113;BME280;47184;57.998;56.184;2023-03-19T09:19:09;102030.13;;;19.88;16.81
61113;BME280;47184;57.998;56.184;2023-03-19T09:21:35;102059.19;;;20.23;16.52
61113;BME280;47184;57.998;56.184;2023-03-19T09:24:02;102058.44;;;19.90;16.64
61113;BME280;47184;57.998;56.184;2023-03-19T09:26:29;102047.72;;;21.00;16.34
61113;BME280;47184;57.998;56.184;2023-03-19T09:28:55;102038.28;;;22.09;15.82
61113;BME280;47184;57.998;56.184;2023-03-19T09:31:22;102054.81;;;22.21;15.47
61113;BME280;47184;57.998;56.184;2023-03-19T09:33:48;102031.09;;;21.19;15.71
61113;BME280;47184;57.998;56.184;2023-03-19T09:36:15;102039.78;;;20.44;16.01
61113;BME280;47184;57.998;56.184;2023-03-19T09:38:41;102032.03;;;19.63;16.23
61113;BME280;47184;57.998;56.184;2023-03-19T09:43:58;102027.03;;;20.55;15.88
61113;BME280;47184;57.998;56.184;2023-03-19T09:49:11;102020.56;;;20.33;15.62
61113;BME280;47184;57.998;56.184;2023-03-19T09:54:25;102013.47;;;19.12;16.17
61113;BME280;47184;57.998;56.184;2023-03-19T09:56:52;102009.94;;;19.69;15.92
61113;BME280;47184;57.998;56.184;2023-03-19T09:59:21;101998.31;;;21.24;15.23
61113;BME280;47184;57.998;56.184;2023-03-19T10:07:11;102006.53;;;20.85;14.98
61113;BME280;47184;57.998;56.184;2023-03-19T10:17:26;101982.25;;;20.16;14.84
61113;BME280;47184;57.998;56.184;2023-03-19T10:20:02;101977.31;;;18.75;15.21
61113;BME280;47184;57.998;56.184;2023-03-19T10:22:40;101979.19;;;17.56;15.37
61113;BME280;47184;57.998;56.184;2023-03-19T10:25:18;101959.97;;;17.78;15.75
61113;BME280;47184;57.998;56.184;2023-03-19T10:27:58;101966.91;;;18.64;15.50
61113;BME280;47184;57.998;56.184;2023-03-19T10:30:25;101962.59;;;18.71;14.92
61113;BME280;47184;57.998;56.184;2023-03-19T10:33:16;101964.78;;;19.00;15.16
61113;BME280;47184;57.998;56.184;2023-03-19T10:35:49;101937.75;;;19.98;14.59
61113;BME280;47184;57.998;56.184;2023-03-19T10:38:21;101933.47;;;19.81;14.29
61113;BME280;47184;57.998;56.184;2023-03-19T10:41:03;101943.56;;;18.16;14.96
61113;BME280;47184;57.998;56.184;2023-03-19T10:43:31;101943.81;;;17.62;15.17
61113;BME280;47184;57.998;56.184;2023-03-19T10:45:59;101944.44;;;18.32;15.12
61113;BME280;47184;57.998;56.184;2023-03-19T10:48:26;101928.97;;;18.85;15.10
61113;BME280;47184;57.998;56.184;2023-03-19T10:51:04;101916.44;;;19.58;14.73
61113;BME280;47184;57.998;56.184;2023-03-19T10:53:35;101919.97;;;19.58;14.71
61113;BME280;47184;57.998;56.184;2023-03-19T10:58:34;101901.72;;;20.01;14.52
61113;BME280;47184;57.998;56.184;2023-03-19T11:01:11;101920.78;;;18.95;14.25
61113;BME280;47184;57.998;56.184;2023-03-19T11:03:40;101899.94;;;18.07;14.60
61113;BME280;47184;57.998;56.184;2023-03-19T11:06:26;101902.47;;;18.09;14.81
61113;BME280;47184;57.998;56.184;2023-03-19T11:11:50;101887.00;;;16.56;14.81
61113;BME280;47184;57.998;56.184;2023-03-19T11:14:25;101872.03;;;15.92;15.23
61113;BME280;47184;57.998;56.184;2023-03-19T11:19:30;101867.38;;;15.39;16.06
61113;BME280;47184;57.998;56.184;2023-03-19T11:24:39;101836.28;;;16.12;15.51
61113;BME280;47184;57.998;56.184;2023-03-19T11:27:06;101836.66;;;15.81;15.43
61113;BME280;47184;57.998;56.184;2023-03-19T11:29:40;101842.44;;;15.40;15.75
61113;BME280;47184;57.998;56.184;2023-03-19T11:35:10;101813.13;;;14.26;16.10
61113;BME280;47184;57.998;56.184;2023-03-19T11:37:52;101834.41;;;14.55;15.68
61113;BME280;47184;57.998;56.184;2023-03-19T11:43:26;101817.19;;;14.21;15.78
61113;BME280;47184;57.998;56.184;2023-03-19T11:46:16;101828.97;;;13.58;15.57
61113;BME280;47184;57.998;56.184;2023-03-19T11:49:21;101814.69;;;13.40;15.99
61113;BME280;47184;57.998;56.184;2023-03-19T12:00:25;101749.94;;;14.01;15.56
61113;BME280;47184;57.998;56.184;2023-03-19T12:05:39;101774.53;;;14.42;15.66
61113;BME280;47184;57.998;56.184;2023-03-19T12:11:02;101762.09;;;14.99;15.51
61113;BME280;47184;57.998;56.184;2023-03-19T12:28:10;101731.53;;;12.59;16.72
61113;BME280;47184;57.998;56.184;2023-03-19T12:36:28;101734.59;;;13.25;16.57
61113;BME280;47184;57.998;56.184;2023-03-19T12:39:11;101737.56;;;13.01;16.76
61113;BME280;47184;57.998;56.184;2023-03-19T12:41:42;101720.47;;;11.91;17.15
61113;BME280;47184;57.998;56.184;2023-03-19T12:44:12;101718.09;;;11.33;17.18
61113;BME280;47184;57.998;56.184;2023-03-19T12:49:36;101714.75;;;10.53;17.66
61113;BME280;47184;57.998;56.184;2023-03-19T12:52:11;101714.69;;;9.84;18.18
61113;BME280;47184;57.998;56.184;2023-03-19T12:54:45;101701.63;;;9.93;18.52
61113;BME280;47184;57.998;56.184;2023-03-19T12:57:43;101701.69;;;10.62;18.75
61113;BME280;47184;57.998;56.184;2023-03-19T13:03:06;101693.53;;;9.73;18.75
61113;BME280;47184;57.998;56.184;2023-03-19T13:10:41;101663.50;;;7.74;19.68
61113;BME280;47184;57.998;56.184;2023-03-19T13:13:47;101677.19;;;7.39;20.13
61113;BME280;47184;57.998;56.184;2023-03-19T13:21:51;101656.59;;;6.78;21.44
61113;BME280;47184;57.998;56.184;2023-03-19T13:26:51;101645.88;;;6.24;21.78
61113;BME280;47184;57.998;56.184;2023-03-19T13:29:25;101615.50;;;5.61;21.67
61113;BME280;47184;57.998;56.184;2023-03-19T13:31:52;101657.94;;;5.67;21.98
61113;BME280;47184;57.998;56.184;2023-03-19T13:34:26;101655.09;;;5.40;22.37
61113;BME280;47184;57.998;56.184;2023-03-19T13:39:27;101624.97;;;4.70;23.11
61113;BME280;47184;57.998;56.184;2023-03-19T13:44:32;101641.59;;;4.36;23.59
61113;BME280;47184;57.998;56.184;2023-03-19T13:52:49;101626.44;;;3.92;24.61
61113;BME280;47184;57.998;56.184;2023-03-19T13:55:32;101617.44;;;3.97;24.12
61113;BME280;47184;57.998;56.184;2023-03-19T14:03:25;101613.28;;;3.59;24.46
61113;BME280;47184;57.998;56.184;2023-03-19T14:05:55;101598.53;;;3.40;25.36
61113;BME280;47184;57.998;56.184;2023-03-19T14:08:45;101599.41;;;3.22;25.21
61113;BME280;47184;57.998;56.184;2023-03-19T14:11:24;101599.03;;;3.12;25.29
61113;BME280;47184;57.998;56.184;2023-03-19T14:13:53;101569.31;;;2.79;25.75
61113;BME280;47184;57.998;56.184;2023-03-19T14:16:26;101566.72;;;2.60;26.01
61113;BME280;47184;57.998;56.184;2023-03-19T14:18:56;101588.28;;;2.63;26.21
61113;BME280;47184;57.998;56.184;2023-03-19T14:24:34;101577.94;;;2.43;26.74
61113;BME280;47184;57.998;56.184;2023-03-19T14:27:09;101587.16;;;2.31;27.14
61113;BME280;47184;57.998;56.184;2023-03-19T14:29:41;101574.59;;;2.20;27.62
61113;BME280;47184;57.998;56.184;2023-03-19T14:32:15;101568.94;;;2.11;27.71
61113;BME280;47184;57.998;56.184;2023-03-19T14:34:44;101567.66;;;2.01;27.69
61113;BME280;47184;57.998;56.184;2023-03-19T14:37:24;101536.22;;;1.85;27.60
61113;BME280;47184;57.998;56.184;2023-03-19T14:42:35;101551.78;;;1.66;28.68
61113;BME280;47184;57.998;56.184;2023-03-19T14:50:52;101559.56;;;1.47;29.23
61113;BME280;47184;57.998;56.184;2023-03-19T14:53:29;101559.72;;;1.42;29.49
61113;BME280;47184;57.998;56.184;2023-03-19T14:56:09;101557.91;;;1.44;29.51